Vremea acum in Mioveni - Romania

Vrei sa afli care e starea vremii acum in Arges - Romania? Dorim sa iti furnizam starea vremii pentru Arges - Romania. Starea vremii Arges - Romania pentru astazi.

Vremea acum in Mioveni

Temperatura: 12.5 °C

Se simte ca: 12.9 °C
Innorat: 10 %
Precipitatii: 0 %
Presiune atmosferica: 1018 hPa
Umiditate: 68%
Vizibilitate: 20 km
Vantul bate din N cu 4.3 km/h

Evolutia vremii in Mioveni pe ore

Ora: 08:00
Parțial noros
Temperatura: 14°C
Sansa de precipitatii: 0%
Ora Descriere Temp Se simte Precipitatii Umiditate Vant
00:00Parțial noros12.9°12.9°0%69%SE 5.4 KM/H
01:00Parțial noros12.4°12.3°0%69%WSW 5.8 KM/H
02:00Parțial noros12°11.7°0%69%N 6.1 KM/H
03:00Parțial noros11.9°11.8°0%70%N 5.8 KM/H
04:00Parțial noros11.9°11.8°0%70%N 5 KM/H
05:00Parțial noros11.8°11.9°0%70%N 4.7 KM/H
06:00Parțial noros12.5°12.9°0%68%N 4.3 KM/H
07:00Parțial noros13.3°13.8°0%66%NNW 3.6 KM/H
08:00Parțial noros14°14.8°0%63%NNW 3.2 KM/H
09:00Parțial noros15.8°16.3°0%57%NW 4.3 KM/H
10:00Parțial noros17.5°17.8°0%51%W 5.4 KM/H
11:00Parțial noros19.3°19.3°0%46%SW 6.5 KM/H
12:00Parțial noros20°20°0%43%SW 7.2 KM/H
13:00Parțial noros20.8°20.8°0%40%SW 7.6 KM/H
14:00Parțial noros21.5°21.5°0%37%SW 8.3 KM/H
15:00Parțial noros20.8°20.8°0%40%SW 8.3 KM/H
16:00Parțial noros20.1°20.1°0%42%SW 8.6 KM/H
17:00Parțial noros19.4°19.4°0%44%SSW 8.6 KM/H
18:00Noros18.3°18.3°0%48%SW 8.6 KM/H
19:00Parțial noros17.3°17.3°0%53%WSW 8.6 KM/H
20:00Noros16.2°16.2°0%57%WSW 8.6 KM/H
21:00Burniță uşoară15.9°15.9°27%60%W 6.8 KM/H
22:00Noros15.7°15.7°53%63%WNW 4.7 KM/H
23:00Burniță uşoară15.4°15.4°80%66%NW 2.9 KM/H